Time;durP1;ratioP1;P1;durP2;ratioP2;P2;SDS_P1;SDS_P2;PMS_P1;PMS_P2;Temp;Humidity;BMP_temperature;BMP_pressure;BME280_temperature;BME280_humidity;BME280_pressure;Samples;Min_cycle;Max_cycle;Signal;HPM_P1;HPM_P2
2022/06/09 00:01:42;;;;;;;2.97;1.40;;;;;;;;;;5052634;28;20112;-61
2022/06/09 00:04:08;;;;;;;4.07;1.38;;;;;;;;;;5055821;28;20047;-61
2022/06/09 00:06:39;;;;;;;2.60;1.20;;;;;;;;;;5055677;28;20491;-61
2022/06/09 00:09:06;;;;;;;5.15;1.52;;;;;;;;;;5055871;28;20033;-62
2022/06/09 00:11:34;;;;;;;2.53;1.20;;;;;;;;;;5055978;28;20033;-62
2022/06/09 00:14:00;;;;;;;3.50;1.10;;;;;;;;;;5055723;28;20072;-62
2022/06/09 00:16:26;;;;;;;6.65;1.15;;;;;;;;;;5055750;28;20040;-62
2022/06/09 00:18:52;;;;;;;3.22;1.20;;;;;;;;;;5055419;28;20116;-62
2022/06/09 00:21:18;;;;;;;3.42;1.10;;;;;;;;;;5055491;28;20095;-62
2022/06/09 00:23:44;;;;;;;1.63;1.20;;;;;;;;;;5055281;28;20465;-61
2022/06/09 00:26:10;;;;;;;2.13;1.05;;;;;;;;;;5055203;28;20086;-62
2022/06/09 00:28:37;;;;;;;3.70;1.40;;;;;;;;;;5055299;28;20045;-61
2022/06/09 00:31:03;;;;;;;1.88;1.05;;;;;;;;;;5055262;28;20055;-62
2022/06/09 00:33:29;;;;;;;4.15;1.98;;;;;;;;;;5055129;28;20040;-62
2022/06/09 00:35:55;;;;;;;2.17;1.30;;;;;;;;;;5055015;28;20071;-61
2022/06/09 00:38:21;;;;;;;2.28;0.95;;;;;;;;;;5055049;28;20037;-62
2022/06/09 00:40:47;;;;;;;3.85;1.50;;;;;;;;;;5055230;28;20025;-62
2022/06/09 00:43:13;;;;;;;4.78;1.58;;;;;;;;;;5055420;28;20116;-61
2022/06/09 00:45:43;;;;;;;3.17;1.38;;;;;;;;;;5055303;28;20025;-61
2022/06/09 00:48:12;;;;;;;5.63;1.35;;;;;;;;;;5055223;28;20406;-67
2022/06/09 00:50:39;;;;;;;5.40;1.40;;;;;;;;;;5054900;28;20090;-61
2022/06/09 00:53:08;;;;;;;4.22;1.40;;;;;;;;;;5054570;28;20408;-61
2022/06/09 00:55:35;;;;;;;1.75;1.17;;;;;;;;;;5054995;28;20037;-62
2022/06/09 00:58:07;;;;;;;1.75;1.20;;;;;;;;;;5053655;28;20037;-62
2022/06/09 01:00:33;;;;;;;;;;;;;;;;;;5052683;28;20091;-61
2022/06/09 01:03:00;;;;;;;3.50;1.85;;;;;;;;;;5052111;28;19909;-61
2022/06/09 01:05:27;;;;;;;5.47;1.20;;;;;;;;;;5053800;28;20041;-61
2022/06/09 01:07:55;;;;;;;3.97;1.30;;;;;;;;;;5054343;28;20098;-61
2022/06/09 01:10:21;;;;;;;5.30;0.98;;;;;;;;;;5054685;28;20039;-62
2022/06/09 01:12:48;;;;;;;4.57;1.00;;;;;;;;;;5054074;28;20135;-62
2022/06/09 01:15:17;;;;;;;2.08;0.98;;;;;;;;;;5054414;28;20487;-61
2022/06/09 01:17:49;;;;;;;1.35;0.85;;;;;;;;;;5054338;28;20033;-61
2022/06/09 01:20:24;;;;;;;3.67;1.10;;;;;;;;;;5054276;28;20114;-61
2022/06/09 01:23:09;;;;;;;4.57;1.00;;;;;;;;;;5054380;28;20052;-62
2022/06/09 01:25:41;;;;;;;0.90;0.70;;;;;;;;;;5054360;28;20033;-62
2022/06/09 01:28:26;;;;;;;5.22;1.00;;;;;;;;;;5053504;28;20041;-62
2022/06/09 01:30:56;;;;;;;7.50;1.23;;;;;;;;;;5054176;28;20029;-61
2022/06/09 01:33:28;;;;;;;3.53;1.13;;;;;;;;;;5054091;28;20044;-61
2022/06/09 01:35:56;;;;;;;4.55;1.23;;;;;;;;;;5053697;28;20116;-61
2022/06/09 01:38:23;;;;;;;3.33;1.10;;;;;;;;;;5054040;28;20029;-62
2022/06/09 01:40:49;;;;;;;1.85;1.08;;;;;;;;;;5053855;28;20029;-61
2022/06/09 01:43:15;;;;;;;2.00;1.10;;;;;;;;;;5053770;28;20043;-61
2022/06/09 01:45:50;;;;;;;4.22;1.20;;;;;;;;;;5054101;28;20029;-62
2022/06/09 01:48:17;;;;;;;1.63;1.00;;;;;;;;;;5053888;28;20041;-61
2022/06/09 01:50:46;;;;;;;10.20;2.47;;;;;;;;;;5053392;28;20040;-62
2022/06/09 01:53:26;;;;;;;2.83;1.20;;;;;;;;;;5053350;28;20040;-62
2022/06/09 01:55:56;;;;;;;4.95;1.00;;;;;;;;;;5054090;28;20439;-61
2022/06/09 01:58:25;;;;;;;2.85;1.08;;;;;;;;;;5053805;28;20033;-62
2022/06/09 02:00:53;;;;;;;3.13;1.08;;;;;;;;;;5053704;28;20033;-63
2022/06/09 02:03:22;;;;;;;7.47;1.20;;;;;;;;;;5053623;28;20542;-61
2022/06/09 02:05:51;;;;;;;6.57;1.30;;;;;;;;;;5053631;28;20033;-62
2022/06/09 02:08:19;;;;;;;5.78;1.30;;;;;;;;;;5053558;28;20116;-62
2022/06/09 02:10:46;;;;;;;2.38;1.30;;;;;;;;;;5053352;28;20037;-62
2022/06/09 02:13:21;;;;;;;2.60;1.02;;;;;;;;;;5053489;28;20432;-62
2022/06/09 02:15:48;;;;;;;3.75;1.20;;;;;;;;;;5053358;28;20029;-62
2022/06/09 02:18:19;;;;;;;2.88;1.08;;;;;;;;;;5053537;28;20029;-62
2022/06/09 02:21:08;;;;;;;1.25;1.05;;;;;;;;;;5053444;28;20037;-62
2022/06/09 02:23:36;;;;;;;9.15;2.42;;;;;;;;;;5047989;28;20431;-61
2022/06/09 02:26:03;;;;;;;1.83;0.93;;;;;;;;;;5052502;28;20029;-61
2022/06/09 02:28:29;;;;;;;2.65;1.10;;;;;;;;;;5053279;28;20436;-62
2022/06/09 02:30:55;;;;;;;4.28;1.10;;;;;;;;;;5053520;28;20389;-62
2022/06/09 02:33:21;;;;;;;3.63;0.88;;;;;;;;;;5053321;28;20444;-62
2022/06/09 02:35:50;;;;;;;2.55;1.02;;;;;;;;;;5053088;28;20083;-62
2022/06/09 02:38:16;;;;;;;4.15;1.10;;;;;;;;;;5053281;28;20500;-62
2022/06/09 02:40:42;;;;;;;1.92;1.30;;;;;;;;;;5053222;28;20086;-62
2022/06/09 02:43:08;;;;;;;1.80;1.00;;;;;;;;;;5053208;28;20489;-61
2022/06/09 02:45:35;;;;;;;2.45;1.13;;;;;;;;;;5053065;28;20052;-62
2022/06/09 02:48:01;;;;;;;3.95;0.98;;;;;;;;;;5052873;28;20068;-61
2022/06/09 02:50:27;;;;;;;2.13;1.10;;;;;;;;;;5053100;28;20080;-62
2022/06/09 02:52:53;;;;;;;2.67;1.00;;;;;;;;;;5052708;28;20504;-61
2022/06/09 02:55:19;;;;;;;1.35;1.08;;;;;;;;;;5052838;28;20089;-61
2022/06/09 02:57:45;;;;;;;3.72;0.90;;;;;;;;;;5052939;28;20033;-61
2022/06/09 03:00:14;;;;;;;1.95;1.05;;;;;;;;;;5052799;28;20044;-62
2022/06/09 03:02:41;;;;;;;2.55;1.10;;;;;;;;;;5052965;28;20060;-61
2022/06/09 03:05:07;;;;;;;6.57;1.60;;;;;;;;;;5053070;28;20481;-61
2022/06/09 03:07:34;;;;;;;2.45;1.40;;;;;;;;;;5052619;28;20124;-61
2022/06/09 03:10:00;;;;;;;16.48;2.70;;;;;;;;;;5052878;28;20040;-62
2022/06/09 03:12:26;;;;;;;9.10;1.42;;;;;;;;;;5052665;28;20033;-65
2022/06/09 03:14:53;;;;;;;5.93;1.50;;;;;;;;;;5052664;28;20029;-61
2022/06/09 03:17:19;;;;;;;9.05;1.75;;;;;;;;;;5052753;28;20048;-61
2022/06/09 03:19:45;;;;;;;5.55;1.92;;;;;;;;;;5052458;28;20389;-61
2022/06/09 03:22:11;;;;;;;4.30;2.83;;;;;;;;;;5052502;28;20096;-61
2022/06/09 03:24:37;;;;;;;4.80;3.38;;;;;;;;;;5052546;28;20044;-61
2022/06/09 03:27:04;;;;;;;5.32;3.40;;;;;;;;;;5052370;28;20527;-61
2022/06/09 03:29:30;;;;;;;7.78;4.18;;;;;;;;;;5052682;28;20465;-61
2022/06/09 03:31:56;;;;;;;10.57;5.38;;;;;;;;;;5052715;28;20552;-61
2022/06/09 03:34:22;;;;;;;9.18;4.75;;;;;;;;;;5052445;28;20071;-60
2022/06/09 03:36:48;;;;;;;6.65;4.50;;;;;;;;;;5054343;28;20190;-62
2022/06/09 03:39:14;;;;;;;5.30;3.92;;;;;;;;;;5056174;28;20029;-62
2022/06/09 03:41:41;;;;;;;10.32;5.05;;;;;;;;;;5056345;28;20033;-61
2022/06/09 03:44:07;;;;;;;9.35;5.32;;;;;;;;;;5056112;28;20036;-61
2022/06/09 03:46:33;;;;;;;6.03;5.05;;;;;;;;;;5056215;28;20044;-61
2022/06/09 03:49:00;;;;;;;9.85;5.22;;;;;;;;;;5056401;28;20433;-61
2022/06/09 03:51:26;;;;;;;9.25;4.30;;;;;;;;;;5056157;28;20029;-61
2022/06/09 03:53:52;;;;;;;7.57;5.15;;;;;;;;;;5056180;28;20047;-60
2022/06/09 03:56:20;;;;;;;7.57;5.00;;;;;;;;;;5056060;28;20151;-61
2022/06/09 03:58:47;;;;;;;13.73;5.85;;;;;;;;;;5056042;28;20028;-61
2022/06/09 04:01:13;;;;;;;7.40;4.40;;;;;;;;;;5055868;28;20492;-61
2022/06/09 04:03:42;;;;;;;10.43;3.97;;;;;;;;;;5055859;28;20037;-61
2022/06/09 04:06:22;;;;;;;9.05;3.22;;;;;;;;;;5056033;28;20028;-61
2022/06/09 04:08:49;;;;;;;7.95;3.72;;;;;;;;;;5055714;28;20083;-62
2022/06/09 04:11:16;;;;;;;5.63;3.17;;;;;;;;;;5055842;28;20033;-61
2022/06/09 04:13:42;;;;;;;8.63;4.18;;;;;;;;;;5055767;28;20101;-61
2022/06/09 04:16:27;;;;;;;6.70;2.92;;;;;;;;;;5055557;28;20033;-61
2022/06/09 04:18:53;;;;;;;6.22;3.17;;;;;;;;;;5055670;28;20047;-61
2022/06/09 04:21:20;;;;;;;5.63;2.85;;;;;;;;;;5055918;28;20033;-61
2022/06/09 04:23:46;;;;;;;6.72;2.47;;;;;;;;;;5055681;28;20473;-61
2022/06/09 04:26:16;;;;;;;10.80;2.00;;;;;;;;;;5055353;28;20033;-64
2022/06/09 04:28:42;;;;;;;12.48;1.92;;;;;;;;;;5055289;28;20125;-61
2022/06/09 04:31:09;;;;;;;3.13;1.42;;;;;;;;;;5055444;28;20029;-61
2022/06/09 04:33:35;;;;;;;4.45;1.40;;;;;;;;;;5055181;28;20044;-61
2022/06/09 04:36:01;;;;;;;6.18;1.50;;;;;;;;;;5055085;28;20542;-60
2022/06/09 04:38:27;;;;;;;3.25;1.58;;;;;;;;;;5055148;28;20033;-60
2022/06/09 04:40:54;;;;;;;5.88;1.90;;;;;;;;;;5055025;28;20098;-61
2022/06/09 04:43:20;;;;;;;4.18;2.00;;;;;;;;;;5055367;28;20055;-61
2022/06/09 04:45:46;;;;;;;4.65;1.50;;;;;;;;;;5054987;28;20025;-60
2022/06/09 04:48:12;;;;;;;2.38;0.80;;;;;;;;;;5054363;28;20481;-60
2022/06/09 04:50:39;;;;;;;5.32;0.60;;;;;;;;;;5054873;28;20025;-61
2022/06/09 04:53:07;;;;;;;1.42;0.60;;;;;;;;;;5054825;28;20481;-61
2022/06/09 04:55:33;;;;;;;3.88;0.52;;;;;;;;;;5055089;28;20420;-61
2022/06/09 04:57:59;;;;;;;4.32;1.05;;;;;;;;;;5054724;28;20037;-61
2022/06/09 05:00:26;;;;;;;7.00;0.65;;;;;;;;;;5054959;28;20033;-60
2022/06/09 05:02:53;;;;;;;3.80;0.40;;;;;;;;;;5054751;28;20476;-61
2022/06/09 05:05:24;;;;;;;1.95;0.47;;;;;;;;;;5054946;28;20057;-61
2022/06/09 05:07:50;;;;;;;4.63;0.60;;;;;;;;;;5054865;28;20570;-60
2022/06/09 05:10:16;;;;;;;5.50;0.60;;;;;;;;;;5054740;28;20086;-61
2022/06/09 05:12:43;;;;;;;5.00;0.60;;;;;;;;;;5054499;28;20040;-67
2022/06/09 05:15:12;;;;;;;1.95;0.40;;;;;;;;;;5054324;28;20040;-61
2022/06/09 05:17:38;;;;;;;3.10;0.50;;;;;;;;;;5054171;28;20044;-61
2022/06/09 05:20:04;;;;;;;7.00;1.02;;;;;;;;;;5054558;28;20437;-61
2022/06/09 05:22:30;;;;;;;0.93;0.32;;;;;;;;;;5054441;28;20041;-61
2022/06/09 05:24:59;;;;;;;1.75;0.50;;;;;;;;;;5054363;28;20029;-61
2022/06/09 05:27:25;;;;;;;3.45;0.43;;;;;;;;;;5054047;28;20036;-61
2022/06/09 05:29:51;;;;;;;3.25;0.40;;;;;;;;;;5053856;28;20102;-61
2022/06/09 05:32:18;;;;;;;3.17;0.50;;;;;;;;;;5053859;28;20481;-61
2022/06/09 05:34:44;;;;;;;1.55;0.32;;;;;;;;;;5054078;28;20040;-61
2022/06/09 05:37:10;;;;;;;2.67;0.40;;;;;;;;;;5053708;28;20049;-61
2022/06/09 05:44:50;;;;;;;1.45;0.50;;;;;;;;;;5054005;28;20037;-61
2022/06/09 05:45:13;;;;;;;3.03;0.50;;;;;;;;;;5053887;28;20037;-61
2022/06/09 05:47:39;;;;;;;5.28;0.60;;;;;;;;;;5053690;28;20102;-61
2022/06/09 05:50:06;;;;;;;2.28;0.40;;;;;;;;;;5053806;28;20033;-62
2022/06/09 05:52:33;;;;;;;3.75;0.47;;;;;;;;;;5053672;28;20037;-61
2022/06/09 05:54:59;;;;;;;8.50;0.60;;;;;;;;;;5053538;28;20374;-61
2022/06/09 05:57:25;;;;;;;2.05;0.50;;;;;;;;;;5053522;28;20039;-61
2022/06/09 05:59:51;;;;;;;2.38;0.47;;;;;;;;;;5052800;28;20040;-61
2022/06/09 06:02:19;;;;;;;4.55;0.50;;;;;;;;;;5053877;28;20063;-61
2022/06/09 06:04:45;;;;;;;12.13;0.55;;;;;;;;;;5053855;28;20121;-60
2022/06/09 06:07:11;;;;;;;3.25;0.50;;;;;;;;;;5053355;28;20045;-61
2022/06/09 06:09:37;;;;;;;3.85;0.40;;;;;;;;;;5053625;28;20033;-63
2022/06/09 06:12:03;;;;;;;3.15;0.65;;;;;;;;;;5053199;28;20111;-62
2022/06/09 06:14:30;;;;;;;3.30;0.77;;;;;;;;;;5053472;28;20465;-63
2022/06/09 06:16:57;;;;;;;6.25;0.57;;;;;;;;;;5053397;28;20090;-62
2022/06/09 06:19:24;;;;;;;1.95;0.60;;;;;;;;;;5053376;28;20026;-62
2022/06/09 06:21:51;;;;;;;1.92;0.63;;;;;;;;;;5053008;28;20120;-68
2022/06/09 06:24:17;;;;;;;2.80;0.75;;;;;;;;;;5052889;28;20025;-62
2022/06/09 06:26:44;;;;;;;9.43;1.05;;;;;;;;;;5053216;28;20049;-68
2022/06/09 06:29:14;;;;;;;3.33;0.80;;;;;;;;;;5053200;28;20033;-65
2022/06/09 06:31:40;;;;;;;3.75;0.70;;;;;;;;;;5053053;28;20563;-62
2022/06/09 06:34:06;;;;;;;3.03;1.10;;;;;;;;;;5052969;28;20029;-68
2022/06/09 06:36:32;;;;;;;3.10;0.70;;;;;;;;;;5052604;28;20053;-62
2022/06/09 06:38:58;;;;;;;4.05;0.95;;;;;;;;;;5052894;28;20029;-63
2022/06/09 06:41:25;;;;;;;3.97;1.42;;;;;;;;;;5053105;28;20036;-69
2022/06/09 06:43:52;;;;;;;6.90;0.80;;;;;;;;;;5053002;28;20087;-68
2022/06/09 06:46:18;;;;;;;3.97;0.95;;;;;;;;;;5052822;28;20044;-68
2022/06/09 06:48:44;;;;;;;3.78;0.75;;;;;;;;;;5052671;28;20037;-61
2022/06/09 06:51:10;;;;;;;3.15;0.93;;;;;;;;;;5052829;28;20056;-62
2022/06/09 06:53:38;;;;;;;1.50;0.60;;;;;;;;;;5052711;28;20389;-69
2022/06/09 06:56:04;;;;;;;2.17;0.60;;;;;;;;;;5052733;28;20043;-62
2022/06/09 06:58:30;;;;;;;1.20;0.68;;;;;;;;;;5052505;28;20098;-63
2022/06/09 07:00:58;;;;;;;1.38;0.77;;;;;;;;;;5052655;28;20033;-69
2022/06/09 07:03:24;;;;;;;0.93;0.73;;;;;;;;;;5052662;28;20160;-62
2022/06/09 07:05:50;;;;;;;1.48;0.50;;;;;;;;;;5052784;28;20036;-64
2022/06/09 07:08:17;;;;;;;1.27;0.65;;;;;;;;;;5052720;28;20052;-63
2022/06/09 07:10:45;;;;;;;3.97;1.10;;;;;;;;;;5053278;28;20040;-63
2022/06/09 07:13:12;;;;;;;3.13;0.80;;;;;;;;;;5056655;28;20044;-63
2022/06/09 07:15:38;;;;;;;1.10;0.50;;;;;;;;;;5056634;28;20039;-62
2022/06/09 07:18:05;;;;;;;2.00;0.50;;;;;;;;;;5056973;28;20428;-62
2022/06/09 07:20:31;;;;;;;1.92;0.70;;;;;;;;;;5056774;28;20037;-63
2022/06/09 07:22:57;;;;;;;5.28;0.50;;;;;;;;;;5056505;28;20029;-62
2022/06/09 07:25:24;;;;;;;3.20;0.50;;;;;;;;;;5056603;28;20040;-62
2022/06/09 07:27:51;;;;;;;2.88;0.50;;;;;;;;;;5056691;28;20087;-63
2022/06/09 07:30:18;;;;;;;2.78;0.40;;;;;;;;;;5067686;28;20044;-63
2022/06/09 07:32:44;;;;;;;2.80;0.50;;;;;;;;;;5072833;28;20127;-63
2022/06/09 07:35:12;;;;;;;3.45;0.60;;;;;;;;;;5072416;28;20481;-69
2022/06/09 07:37:38;;;;;;;1.05;0.40;;;;;;;;;;5076199;28;20044;-69
2022/06/09 07:40:05;;;;;;;1.05;0.63;;;;;;;;;;5069865;28;20029;-64
2022/06/09 07:42:31;;;;;;;4.63;0.57;;;;;;;;;;5055902;28;20041;-64
2022/06/09 07:44:58;;;;;;;1.13;0.52;;;;;;;;;;5055310;28;20044;-64
2022/06/09 07:47:25;;;;;;;1.27;0.50;;;;;;;;;;5055699;28;20116;-64
2022/06/09 07:49:51;;;;;;;2.05;0.47;;;;;;;;;;5055991;28;20087;-63
2022/06/09 07:52:18;;;;;;;2.08;0.60;;;;;;;;;;5055910;28;20064;-63
2022/06/09 07:54:44;;;;;;;1.00;0.50;;;;;;;;;;5056125;28;20036;-69
2022/06/09 07:57:11;;;;;;;2.38;0.35;;;;;;;;;;5055980;28;20090;-69
2022/06/09 07:59:37;;;;;;;1.35;0.57;;;;;;;;;;5055683;28;20541;-64
2022/06/09 08:02:04;;;;;;;1.75;0.57;;;;;;;;;;5055436;28;20033;-64
2022/06/09 08:04:30;;;;;;;1.55;0.60;;;;;;;;;;5055891;28;20380;-63
2022/06/09 08:06:56;;;;;;;1.73;0.50;;;;;;;;;;5055184;28;20051;-66
2022/06/09 08:09:22;;;;;;;1.27;0.52;;;;;;;;;;5055250;28;20039;-68
2022/06/09 08:11:49;;;;;;;3.03;0.45;;;;;;;;;;5055827;28;20068;-64
2022/06/09 08:14:15;;;;;;;2.35;0.60;;;;;;;;;;5055938;28;20033;-63
2022/06/09 08:16:41;;;;;;;1.27;0.47;;;;;;;;;;5056287;28;20037;-63
2022/06/09 08:19:08;;;;;;;0.60;0.38;;;;;;;;;;5055999;28;20037;-63
2022/06/09 08:21:34;;;;;;;2.25;0.70;;;;;;;;;;5055522;28;20033;-64
2022/06/09 08:24:00;;;;;;;3.17;0.90;;;;;;;;;;5054741;28;20154;-63
2022/06/09 08:26:26;;;;;;;5.45;1.10;;;;;;;;;;5055456;28;20041;-64
2022/06/09 08:28:53;;;;;;;3.22;1.10;;;;;;;;;;5055484;28;20041;-63
2022/06/09 08:31:19;;;;;;;4.35;1.08;;;;;;;;;;5055292;28;20040;-63
2022/06/09 08:33:45;;;;;;;3.60;0.90;;;;;;;;;;5055598;28;20080;-63
2022/06/09 08:36:11;;;;;;;3.40;0.82;;;;;;;;;;5055450;28;20045;-63
2022/06/09 08:38:38;;;;;;;6.10;1.17;;;;;;;;;;5055424;28;20427;-64
2022/06/09 08:41:22;;;;;;;9.13;1.00;;;;;;;;;;5055216;28;20068;-63
2022/06/09 08:43:54;;;;;;;2.92;1.10;;;;;;;;;;5055127;28;20044;-63
2022/06/09 08:46:27;;;;;;;11.15;1.00;;;;;;;;;;5055303;28;20158;-63
2022/06/09 08:48:55;;;;;;;3.47;1.17;;;;;;;;;;5055404;28;20130;-63
2022/06/09 08:51:34;;;;;;;1.70;1.20;;;;;;;;;;5055409;28;20037;-63
2022/06/09 08:54:05;;;;;;;2.55;1.08;;;;;;;;;;5054953;28;20033;-62
2022/06/09 08:56:31;;;;;;;2.27;1.17;;;;;;;;;;5055415;28;20041;-63
2022/06/09 08:58:59;;;;;;;3.22;1.05;;;;;;;;;;5055312;28;20036;-63
2022/06/09 09:01:44;;;;;;;3.25;1.08;;;;;;;;;;5055207;28;20036;-64
2022/06/09 09:04:22;;;;;;;3.00;1.45;;;;;;;;;;5055045;28;20519;-63
2022/06/09 09:06:56;;;;;;;2.88;1.33;;;;;;;;;;5055115;28;20045;-63
2022/06/09 09:09:29;;;;;;;3.13;1.30;;;;;;;;;;5055146;28;20507;-64
2022/06/09 09:12:04;;;;;;;3.70;1.17;;;;;;;;;;5055040;28;20041;-63
2022/06/09 09:14:36;;;;;;;3.80;1.40;;;;;;;;;;5054748;28;20040;-64
2022/06/09 09:17:20;;;;;;;2.25;1.10;;;;;;;;;;5055054;28;20063;-63
2022/06/09 10:55:15;;;;;;;4.50;1.88;;;;;;;;;;5051682;28;20087;-64
2022/06/09 10:58:00;;;;;;;3.30;1.40;;;;;;;;;;5052355;28;20037;-63
2022/06/09 11:00:28;;;;;;;3.55;1.67;;;;;;;;;;5051666;28;20040;-63
2022/06/09 11:02:55;;;;;;;4.70;1.55;;;;;;;;;;5052908;28;20033;-63
2022/06/09 11:05:25;;;;;;;3.05;1.70;;;;;;;;;;5052994;28;20120;-63
2022/06/09 11:08:24;;;;;;;8.20;1.35;;;;;;;;;;5052310;28;20061;-63
2022/06/09 11:10:56;;;;;;;4.05;1.50;;;;;;;;;;5029477;28;20408;-63
2022/06/09 11:13:25;;;;;;;5.78;1.40;;;;;;;;;;5052593;28;20542;-64
2022/06/09 11:16:01;;;;;;;2.95;1.48;;;;;;;;;;5052555;28;20056;-63
2022/06/09 11:18:28;;;;;;;3.53;1.50;;;;;;;;;;5052635;28;20035;-64
2022/06/09 11:20:58;;;;;;;3.60;1.60;;;;;;;;;;5052557;28;20030;-64
2022/06/09 11:23:43;;;;;;;4.47;1.52;;;;;;;;;;5052575;28;20079;-63
2022/06/09 11:26:25;;;;;;;4.20;1.80;;;;;;;;;;5052548;28;20053;-63
2022/06/09 11:29:09;;;;;;;7.00;1.98;;;;;;;;;;5052553;28;20442;-64
2022/06/09 11:32:08;;;;;;;5.28;2.10;;;;;;;;;;5052844;28;20384;-63
2022/06/09 11:34:55;;;;;;;4.13;1.60;;;;;;;;;;5029568;28;20056;-64
2022/06/09 11:37:24;;;;;;;3.30;1.85;;;;;;;;;;5052520;28;20111;-64
2022/06/09 11:40:09;;;;;;;4.78;1.95;;;;;;;;;;5052449;28;20029;-64
2022/06/09 11:43:01;;;;;;;4.88;2.17;;;;;;;;;;5052318;28;20037;-63
2022/06/09 11:45:37;;;;;;;3.95;1.95;;;;;;;;;;5036606;28;20040;-64
2022/06/09 11:48:05;;;;;;;7.10;2.22;;;;;;;;;;5052013;28;20048;-64
2022/06/09 11:50:36;;;;;;;5.05;1.63;;;;;;;;;;5052289;28;20160;-64
2022/06/09 11:53:03;;;;;;;6.10;1.75;;;;;;;;;;5052271;28;20025;-66
2022/06/09 11:55:57;;;;;;;3.22;2.05;;;;;;;;;;5050786;28;20508;-65
2022/06/09 11:58:35;;;;;;;2.63;1.58;;;;;;;;;;5052412;28;20183;-65
2022/06/09 12:01:24;;;;;;;4.50;1.73;;;;;;;;;;5053216;28;20385;-65
2022/06/09 12:04:09;;;;;;;3.50;1.52;;;;;;;;;;5036631;28;20039;-65
2022/06/09 12:06:50;;;;;;;8.98;1.92;;;;;;;;;;5055745;28;20037;-65
2022/06/09 12:09:22;;;;;;;5.72;1.50;;;;;;;;;;5055685;28;20082;-64
2022/06/09 12:11:48;;;;;;;;;;;;;;;;;;5055927;28;20091;-65
2022/06/09 12:14:34;;;;;;;5.20;1.45;;;;;;;;;;5055530;28;19909;-64
2022/06/09 12:17:08;;;;;;;5.57;1.63;;;;;;;;;;5055462;28;20087;-64
2022/06/09 12:19:55;;;;;;;4.13;1.50;;;;;;;;;;5054693;28;20097;-64
2022/06/09 12:22:39;;;;;;;3.50;1.25;;;;;;;;;;5052829;28;20029;-64
2022/06/09 12:25:10;;;;;;;4.88;1.42;;;;;;;;;;5053856;28;20032;-65
2022/06/09 12:27:42;;;;;;;6.60;1.63;;;;;;;;;;5055677;28;20132;-65
2022/06/09 12:30:29;;;;;;;3.60;1.58;;;;;;;;;;5055468;28;20548;-65
2022/06/09 12:33:13;;;;;;;9.50;1.90;;;;;;;;;;5055272;28;20033;-64
2022/06/09 12:35:50;;;;;;;11.25;1.63;;;;;;;;;;5055262;28;20060;-64
2022/06/09 12:38:19;;;;;;;6.18;1.73;;;;;;;;;;5055461;28;20045;-69
2022/06/09 12:40:51;;;;;;;4.47;1.30;;;;;;;;;;5055118;28;20464;-64
2022/06/09 12:43:37;;;;;;;4.72;1.40;;;;;;;;;;5055099;28;20048;-64
2022/06/09 12:46:18;;;;;;;5.55;1.60;;;;;;;;;;5055287;28;20033;-64
2022/06/09 12:48:45;;;;;;;8.70;1.60;;;;;;;;;;5054894;28;20056;-65
2022/06/09 12:51:17;;;;;;;4.43;1.67;;;;;;;;;;5055280;28;20130;-64
2022/06/09 12:53:48;;;;;;;9.20;1.90;;;;;;;;;;5054929;28;20112;-64
2022/06/09 12:56:28;;;;;;;6.07;1.40;;;;;;;;;;5054790;28;20033;-65
2022/06/09 12:58:55;;;;;;;2.75;1.38;;;;;;;;;;5055014;28;20033;-65
2022/06/09 13:01:23;;;;;;;8.45;1.40;;;;;;;;;;5054860;28;20066;-65
2022/06/09 13:03:52;;;;;;;3.28;1.10;;;;;;;;;;5054442;28;20036;-65
2022/06/09 13:06:23;;;;;;;1.73;1.08;;;;;;;;;;5054301;28;20037;-64
2022/06/09 13:08:58;;;;;;;1.98;0.85;;;;;;;;;;5053924;28;20063;-65
2022/06/09 13:14:19;;;;;;;6.40;1.17;;;;;;;;;;5054241;28;20052;-65
2022/06/09 13:16:47;;;;;;;3.38;1.00;;;;;;;;;;5054071;28;20508;-65
2022/06/09 13:19:17;;;;;;;2.38;0.95;;;;;;;;;;5054321;28;20048;-65
2022/06/09 13:21:44;;;;;;;7.82;1.13;;;;;;;;;;5054312;28;20112;-64
2022/06/09 13:24:15;;;;;;;6.28;0.93;;;;;;;;;;5054716;28;20032;-64
2022/06/09 13:26:44;;;;;;;3.38;1.20;;;;;;;;;;5054073;28;20037;-65
2022/06/09 13:29:16;;;;;;;1.40;0.90;;;;;;;;;;5053963;28;20045;-65
2022/06/09 13:31:44;;;;;;;3.40;1.00;;;;;;;;;;5053888;28;20025;-64
2022/06/09 13:34:10;;;;;;;1.55;0.90;;;;;;;;;;5054056;28;20037;-64
2022/06/09 13:36:37;;;;;;;2.58;1.10;;;;;;;;;;5054081;28;20037;-65
2022/06/09 13:39:22;;;;;;;3.00;1.02;;;;;;;;;;5053945;28;20087;-65
2022/06/09 13:41:48;;;;;;;2.22;1.20;;;;;;;;;;5054181;28;20040;-65
2022/06/09 13:44:17;;;;;;;3.65;0.90;;;;;;;;;;5053857;28;20068;-64
2022/06/09 13:47:08;;;;;;;5.15;1.30;;;;;;;;;;5053631;28;20037;-65
2022/06/09 13:49:42;;;;;;;4.50;0.90;;;;;;;;;;5053918;28;20112;-65
2022/06/09 13:52:27;;;;;;;1.38;0.93;;;;;;;;;;5053810;28;20037;-64
2022/06/09 13:54:55;;;;;;;1.45;0.80;;;;;;;;;;5053645;28;20033;-65
2022/06/09 13:57:23;;;;;;;2.63;1.20;;;;;;;;;;5054010;28;20040;-65
2022/06/09 13:59:49;;;;;;;1.48;1.02;;;;;;;;;;5053910;28;20029;-65
2022/06/09 14:02:17;;;;;;;1.48;1.10;;;;;;;;;;5053660;28;20047;-64
2022/06/09 14:04:44;;;;;;;1.75;1.10;;;;;;;;;;5053674;28;20036;-65
2022/06/09 14:07:14;;;;;;;3.90;1.10;;;;;;;;;;5053857;28;20056;-67
2022/06/09 14:09:40;;;;;;;2.13;0.90;;;;;;;;;;5053641;28;20037;-68
2022/06/09 14:12:06;;;;;;;4.60;1.02;;;;;;;;;;5051908;28;20033;-67
2022/06/09 14:14:32;;;;;;;2.13;0.88;;;;;;;;;;5052482;28;20044;-68
2022/06/09 14:16:58;;;;;;;2.17;0.85;;;;;;;;;;5052839;28;20062;-67
2022/06/09 14:19:25;;;;;;;2.97;1.00;;;;;;;;;;5052596;28;20162;-68
2022/06/09 14:21:51;;;;;;;1.48;0.85;;;;;;;;;;5050833;28;20249;-68
2022/06/09 14:24:18;;;;;;;3.30;1.10;;;;;;;;;;5053294;28;20029;-67
2022/06/09 14:26:46;;;;;;;1.50;0.95;;;;;;;;;;5052927;28;20396;-68
2022/06/09 14:29:13;;;;;;;5.45;1.00;;;;;;;;;;5053261;28;20061;-69
2022/06/09 14:31:39;;;;;;;1.98;1.00;;;;;;;;;;5053308;28;20040;-68
2022/06/09 14:34:05;;;;;;;9.18;0.93;;;;;;;;;;5053211;28;20112;-70
2022/06/09 14:36:32;;;;;;;8.15;2.45;;;;;;;;;;5053206;28;20051;-68
2022/06/09 14:39:00;;;;;;;2.55;1.02;;;;;;;;;;5052838;28;20061;-68
2022/06/09 14:41:26;;;;;;;6.05;1.08;;;;;;;;;;5052913;28;20037;-68
2022/06/09 14:43:53;;;;;;;2.90;0.80;;;;;;;;;;5052799;28;20120;-68
2022/06/09 14:46:22;;;;;;;1.80;0.80;;;;;;;;;;5053087;28;20041;-68
2022/06/09 14:48:48;;;;;;;1.88;0.80;;;;;;;;;;5052651;28;20052;-68
2022/06/09 14:51:14;;;;;;;7.50;0.82;;;;;;;;;;5052623;28;20029;-68
2022/06/09 14:53:41;;;;;;;3.58;0.80;;;;;;;;;;5052267;28;20037;-68
2022/06/09 14:56:07;;;;;;;3.75;0.80;;;;;;;;;;5052205;28;20029;-68
2022/06/09 14:58:33;;;;;;;4.03;0.90;;;;;;;;;;5052669;28;20087;-66
2022/06/09 15:00:59;;;;;;;2.28;0.90;;;;;;;;;;5052868;28;20127;-67
2022/06/09 15:03:25;;;;;;;6.85;0.90;;;;;;;;;;5052624;28;20029;-67
2022/06/09 15:05:51;;;;;;;1.60;0.70;;;;;;;;;;5052741;28;20512;-67
2022/06/09 15:08:18;;;;;;;5.25;0.80;;;;;;;;;;5052315;28;20053;-67
2022/06/09 15:10:46;;;;;;;0.85;0.75;;;;;;;;;;5052523;28;20481;-67
2022/06/09 15:13:12;;;;;;;2.00;0.63;;;;;;;;;;5052399;28;20036;-70
2022/06/09 15:15:39;;;;;;;2.10;0.85;;;;;;;;;;5052190;28;20420;-67
2022/06/09 15:18:06;;;;;;;4.40;0.75;;;;;;;;;;5052602;28;20389;-67
2022/06/09 15:20:35;;;;;;;3.95;0.73;;;;;;;;;;5052257;28;20044;-70
2022/06/09 15:23:02;;;;;;;3.25;0.80;;;;;;;;;;5052412;28;20060;-67
2022/06/09 15:25:28;;;;;;;2.13;0.80;;;;;;;;;;5052353;28;20037;-66
2022/06/09 15:27:55;;;;;;;5.45;0.93;;;;;;;;;;5052373;28;20052;-67
2022/06/09 15:30:29;;;;;;;4.63;0.80;;;;;;;;;;5052810;28;20032;-66
2022/06/09 15:32:55;;;;;;;2.90;0.90;;;;;;;;;;5054796;28;20112;-66
2022/06/09 15:35:22;;;;;;;10.55;0.85;;;;;;;;;;5056196;28;20448;-67
2022/06/09 15:37:49;;;;;;;2.97;1.00;;;;;;;;;;5055530;28;20060;-67
2022/06/09 15:40:16;;;;;;;2.85;0.73;;;;;;;;;;5055961;28;20033;-67
2022/06/09 15:42:42;;;;;;;2.03;0.80;;;;;;;;;;5055932;28;20044;-67
2022/06/09 15:45:09;;;;;;;3.65;1.00;;;;;;;;;;5056249;28;20033;-66
2022/06/09 15:47:35;;;;;;;3.67;0.90;;;;;;;;;;5055733;28;20114;-67
2022/06/09 15:50:01;;;;;;;1.58;0.88;;;;;;;;;;5055491;28;20037;-67
2022/06/09 15:52:27;;;;;;;4.35;1.10;;;;;;;;;;5055532;28;20037;-67
2022/06/09 15:54:54;;;;;;;2.20;1.15;;;;;;;;;;5055432;28;20037;-67
2022/06/09 15:57:20;;;;;;;2.83;1.08;;;;;;;;;;5055158;28;20115;-67
2022/06/09 15:59:46;;;;;;;6.22;1.30;;;;;;;;;;5054924;28;20036;-66
2022/06/09 16:02:12;;;;;;;5.80;1.42;;;;;;;;;;5054824;28;20041;-67
2022/06/09 16:04:45;;;;;;;5.00;1.48;;;;;;;;;;5054669;28;20029;-67
2022/06/09 16:07:13;;;;;;;6.20;1.60;;;;;;;;;;5054962;28;20068;-66
2022/06/09 16:09:39;;;;;;;3.78;1.52;;;;;;;;;;5054616;28;20473;-67
2022/06/09 16:12:05;;;;;;;5.07;2.25;;;;;;;;;;5054769;28;20114;-67
2022/06/09 16:14:31;;;;;;;2.97;1.70;;;;;;;;;;5054171;28;20048;-66
2022/06/09 16:16:57;;;;;;;6.28;2.00;;;;;;;;;;5055273;28;20029;-66
2022/06/09 16:19:23;;;;;;;6.57;2.03;;;;;;;;;;5054848;28;20041;-66
2022/06/09 16:21:49;;;;;;;7.68;2.20;;;;;;;;;;5054867;28;20037;-66
2022/06/09 16:24:15;;;;;;;6.00;2.13;;;;;;;;;;5054674;28;20032;-66
2022/06/09 16:26:42;;;;;;;5.35;1.98;;;;;;;;;;5054495;28;20044;-67
2022/06/09 16:29:09;;;;;;;4.45;1.70;;;;;;;;;;5054125;28;20041;-67
2022/06/09 16:31:35;;;;;;;3.63;1.65;;;;;;;;;;5054673;28;20447;-66
2022/06/09 16:34:01;;;;;;;4.93;1.60;;;;;;;;;;5054450;28;20099;-66
2022/06/09 16:36:27;;;;;;;7.85;1.27;;;;;;;;;;5054389;28;20040;-66